Time;durP1;ratioP1;P1;durP2;ratioP2;P2;SDS_P1;SDS_P2;PMS_P1;PMS_P2;Temp;Humidity;BMP_temperature;BMP_pressure;BME280_temperature;BME280_humidity;BME280_pressure;Samples;Min_cycle;Max_cycle;Signal;HPM_P1;HPM_P2
2022/06/20 00:01:58;;;;;;;5.47;2.63;;;;;;;19.85;100.00;98376.22;5089524;28;20206;-80
2022/06/20 00:04:27;;;;;;;6.93;2.30;;;;;;;19.91;100.00;98388.13;5089481;28;20202;-79
2022/06/20 00:06:56;;;;;;;6.03;2.57;;;;;;;19.79;100.00;98397.63;5094965;28;20233;-79
2022/06/20 00:09:24;;;;;;;5.67;2.30;;;;;;;19.72;100.00;98390.25;5088938;28;20274;-80
2022/06/20 00:11:52;;;;;;;5.63;2.57;;;;;;;19.68;100.00;98391.59;5090332;28;20183;-79
2022/06/20 00:14:22;;;;;;;5.47;2.40;;;;;;;19.54;100.00;98400.34;5092168;28;20211;-80
2022/06/20 00:16:50;;;;;;;6.53;2.60;;;;;;;19.55;100.00;98396.66;5094685;28;20218;-80
2022/06/20 00:19:20;;;;;;;5.93;2.50;;;;;;;19.35;100.00;98396.22;5093652;28;20279;-80
2022/06/20 00:21:49;;;;;;;7.33;2.30;;;;;;;19.42;100.00;98386.47;5096981;27;20202;-80
2022/06/20 00:24:18;;;;;;;6.33;2.40;;;;;;;19.47;100.00;98394.00;5089325;28;20244;-79
2022/06/20 00:26:46;;;;;;;9.40;2.50;;;;;;;19.32;100.00;98399.25;5090009;28;20320;-80
2022/06/20 00:29:14;;;;;;;6.23;2.10;;;;;;;19.42;100.00;98409.81;5094772;28;20192;-81
2022/06/20 00:31:42;;;;;;;5.27;2.50;;;;;;;19.49;100.00;98404.56;5093787;28;20200;-80
2022/06/20 00:34:13;;;;;;;5.90;2.33;;;;;;;19.13;100.00;98400.47;5087470;28;20245;-80
2022/06/20 00:36:43;;;;;;;5.77;2.33;;;;;;;19.12;100.00;98403.34;5094710;28;20647;-80
2022/06/20 00:39:12;;;;;;;4.30;2.10;;;;;;;19.08;100.00;98408.19;5089871;28;20195;-79
2022/06/20 00:41:41;;;;;;;3.77;2.13;;;;;;;18.91;100.00;98405.69;5094433;28;20195;-80
2022/06/20 00:44:13;;;;;;;5.73;2.20;;;;;;;18.82;100.00;98396.84;5091405;28;20196;-80
2022/06/20 00:46:46;;;;;;;4.77;2.07;;;;;;;18.56;100.00;98421.13;5085959;28;20226;-80
2022/06/20 00:49:20;;;;;;;7.10;2.40;;;;;;;18.74;100.00;98421.00;5093094;28;20214;-80
2022/06/20 00:51:55;;;;;;;5.87;2.23;;;;;;;18.57;100.00;98423.63;5093709;28;20207;-80
2022/06/20 00:54:28;;;;;;;4.30;2.30;;;;;;;18.52;100.00;98422.44;5093824;28;20240;-80
2022/06/20 00:57:02;;;;;;;5.53;2.17;;;;;;;18.64;100.00;98404.19;5092941;28;20206;-80
2022/06/20 00:59:33;;;;;;;7.03;2.40;;;;;;;18.70;100.00;98401.69;5096316;27;20199;-80
2022/06/20 01:02:06;;;;;;;7.57;2.40;;;;;;;18.64;100.00;98418.44;5091027;28;20184;-80
2022/06/20 01:04:42;;;;;;;3.20;2.00;;;;;;;18.48;100.00;98423.78;5093959;28;20253;-80
2022/06/20 01:07:19;;;;;;;3.77;2.20;;;;;;;18.28;100.00;98428.63;5093579;28;20222;-80
2022/06/20 01:09:54;;;;;;;8.13;2.33;;;;;;;18.24;100.00;98420.09;5093097;28;20649;-80
2022/06/20 01:12:25;;;;;;;4.47;2.33;;;;;;;18.22;100.00;98422.06;5092353;28;20279;-80
2022/06/20 01:14:55;;;;;;;5.47;2.47;;;;;;;18.12;100.00;98433.94;5094750;28;20250;-79
2022/06/20 01:17:36;;;;;;;5.93;2.40;;;;;;;18.18;100.00;98433.31;5088905;28;20191;-80
2022/06/20 01:20:07;;;;;;;5.63;2.43;;;;;;;18.14;100.00;98427.41;5092074;28;20260;-80
2022/06/20 01:22:46;;;;;;;5.53;2.47;;;;;;;18.20;100.00;98423.25;5089309;28;20194;-79
2022/06/20 01:25:38;;;;;;;5.97;2.80;;;;;;;17.97;100.00;98421.19;5093627;28;20207;-80
2022/06/20 01:28:11;;;;;;;4.03;1.87;;;;;;;18.23;100.00;98407.66;5087686;28;20198;-79
2022/06/20 01:30:44;;;;;;;6.30;2.37;;;;;;;18.12;100.00;98424.06;5090737;28;20226;-80
2022/06/20 01:33:13;;;;;;;4.43;2.20;;;;;;;18.25;100.00;98411.03;5089675;28;20253;-80
2022/06/20 01:38:29;;;;;;;8.47;2.60;;;;;;;18.25;100.00;98405.69;5092932;28;20277;-80
2022/06/20 01:43:48;;;;;;;5.37;2.13;;;;;;;18.49;100.00;98418.25;5093171;28;20669;-80
2022/06/20 01:46:18;;;;;;;3.43;2.13;;;;;;;18.58;100.00;98389.59;5090243;28;20222;-80
2022/06/20 01:48:50;;;;;;;5.50;2.50;;;;;;;18.47;100.00;98400.66;5091304;28;20233;-80
2022/06/20 01:51:23;;;;;;;4.63;2.30;;;;;;;18.41;100.00;98445.06;5089833;28;20218;-80
2022/06/20 01:53:56;;;;;;;5.50;2.20;;;;;;;18.16;100.00;98597.00;5097387;28;20199;-80
2022/06/20 01:56:28;;;;;;;7.00;2.40;;;;;;;17.55;100.00;98729.13;5095786;28;20215;-79
2022/06/20 01:59:04;;;;;;;5.03;2.30;;;;;;;17.36;100.00;98694.47;5094865;28;20650;-79
2022/06/20 02:01:34;;;;;;;5.53;2.60;;;;;;;17.33;100.00;98698.28;5093406;28;20241;-79
2022/06/20 02:04:06;;;;;;;6.70;2.30;;;;;;;17.22;100.00;98797.56;5091473;28;20261;-79
2022/06/20 02:06:35;;;;;;;5.00;2.40;;;;;;;17.15;100.00;98754.47;5090137;28;20298;-78
2022/06/20 02:09:06;;;;;;;5.17;2.80;;;;;;;17.11;100.00;98746.91;5095805;28;20674;-79
2022/06/20 02:11:36;;;;;;;3.70;2.60;;;;;;;17.02;100.00;98731.75;5072149;28;20208;-79
2022/06/20 02:14:11;;;;;;;5.67;2.57;;;;;;;17.16;100.00;98683.06;5071843;28;20189;-79
2022/06/20 02:16:44;;;;;;;6.10;2.70;;;;;;;17.10;100.00;98678.31;5072123;28;20188;-79
2022/06/20 02:19:34;;;;;;;7.87;2.80;;;;;;;17.27;100.00;98661.41;5069617;28;20192;-79
2022/06/20 02:22:06;;;;;;;8.10;2.60;;;;;;;17.41;100.00;98676.97;5074627;28;20232;-79
2022/06/20 02:24:39;;;;;;;7.67;2.77;;;;;;;17.35;100.00;98655.28;5069751;28;20196;-79
2022/06/20 02:27:14;;;;;;;16.30;4.00;;;;;;;17.33;100.00;98634.03;5074177;28;20220;-79
2022/06/20 02:29:43;;;;;;;11.37;4.10;;;;;;;17.24;100.00;98612.72;5073969;28;20208;-79
2022/06/20 02:32:15;;;;;;;10.27;3.77;;;;;;;17.39;100.00;98590.59;5066776;28;20695;-79
2022/06/20 02:34:45;;;;;;;10.60;3.77;;;;;;;17.29;100.00;98565.75;5071291;28;20228;-80
2022/06/20 02:37:23;;;;;;;6.97;3.30;;;;;;;17.26;100.00;98525.91;5089047;28;20195;-79
2022/06/20 02:39:57;;;;;;;9.50;3.57;;;;;;;17.54;100.00;98494.47;5096842;28;20291;-79
2022/06/20 02:42:30;;;;;;;8.10;3.00;;;;;;;17.48;100.00;98478.22;5096578;28;20196;-80
2022/06/20 02:45:03;;;;;;;10.00;3.50;;;;;;;17.42;100.00;98474.31;5095446;28;20207;-81
2022/06/20 02:47:32;;;;;;;6.57;3.33;;;;;;;17.33;100.00;98461.88;5092910;28;20227;-80
2022/06/20 02:50:02;;;;;;;6.17;2.90;;;;;;;17.27;100.00;98438.41;5093348;28;20191;-80
2022/06/20 02:52:36;;;;;;;9.67;3.23;;;;;;;17.44;100.00;98443.69;5095673;28;20200;-80
2022/06/20 02:55:06;;;;;;;6.03;3.10;;;;;;;17.38;100.00;98446.19;5091411;28;20196;-80
2022/06/20 02:57:40;;;;;;;5.30;3.00;;;;;;;17.38;100.00;98449.72;5096631;28;20202;-80
2022/06/20 03:00:16;;;;;;;5.00;3.00;;;;;;;17.36;100.00;98459.72;5098420;28;20215;-80
2022/06/20 03:02:50;;;;;;;6.27;3.00;;;;;;;17.40;100.00;98455.72;5094920;28;20285;-80
2022/06/20 03:05:19;;;;;;;5.10;2.80;;;;;;;17.42;100.00;98466.28;5093264;28;20240;-80
2022/06/20 03:07:49;;;;;;;6.50;3.37;;;;;;;17.43;100.00;98468.78;5091102;28;20678;-80
2022/06/20 03:10:22;;;;;;;7.13;3.30;;;;;;;17.67;100.00;98460.06;5088671;28;20188;-80
2022/06/20 03:12:51;;;;;;;5.43;3.00;;;;;;;17.88;100.00;98454.31;5090746;28;20196;-80
2022/06/20 03:15:21;;;;;;;5.23;2.97;;;;;;;17.82;100.00;98459.47;5095421;28;20203;-80
2022/06/20 03:17:53;;;;;;;8.57;2.90;;;;;;;17.87;100.00;98452.66;5085449;28;20192;-80
2022/06/20 03:20:25;;;;;;;4.77;2.80;;;;;;;17.90;100.00;98438.09;5095326;28;20194;-80
2022/06/20 03:23:01;;;;;;;6.40;2.90;;;;;;;17.86;100.00;98442.09;5090799;28;20196;-79
2022/06/20 03:25:30;;;;;;;5.50;3.10;;;;;;;17.66;100.00;98444.13;5093581;28;20650;-80
2022/06/20 03:27:58;;;;;;;7.13;3.17;;;;;;;17.85;100.00;98443.91;5089890;28;20670;-80
2022/06/20 03:30:49;;;;;;;7.40;3.17;;;;;;;18.11;100.00;98433.09;5095629;28;20312;-79
2022/06/20 03:33:21;;;;;;;7.67;3.00;;;;;;;18.08;100.00;98429.94;5091817;28;20303;-79
2022/06/20 03:35:55;;;;;;;5.50;3.23;;;;;;;17.99;100.00;98415.66;5091519;28;20231;-79
2022/06/20 03:38:24;;;;;;;5.00;3.10;;;;;;;18.20;100.00;98418.72;5094984;28;20198;-79
2022/06/20 03:40:53;;;;;;;4.83;2.67;;;;;;;18.21;100.00;98424.94;5092648;28;20198;-80
2022/06/20 03:43:24;;;;;;;7.20;3.40;;;;;;;17.68;100.00;98429.59;5090828;28;20192;-80
2022/06/20 03:45:58;;;;;;;7.37;3.20;;;;;;;17.68;100.00;98416.22;5092729;28;20210;-80
2022/06/20 03:48:31;;;;;;;8.73;2.97;;;;;;;17.49;100.00;98404.91;5090822;28;20231;-80
2022/06/20 03:51:06;;;;;;;7.47;2.97;;;;;;;17.37;100.00;98404.31;5094851;28;20207;-80
2022/06/20 03:53:40;;;;;;;6.97;3.27;;;;;;;17.60;100.00;98408.13;5093855;28;20191;-80
2022/06/20 03:56:26;;;;;;;6.57;3.43;;;;;;;17.68;100.00;98389.44;5096539;27;20241;-80
2022/06/20 03:58:59;;;;;;;5.00;2.80;;;;;;;17.94;100.00;98380.47;5092156;28;20207;-80
2022/06/20 04:01:34;;;;;;;5.17;3.27;;;;;;;17.37;100.00;98365.03;5088146;28;20204;-79
2022/06/20 04:04:08;;;;;;;15.13;3.50;;;;;;;17.50;100.00;98353.88;5093725;28;20275;-80
2022/06/20 04:06:44;;;;;;;5.63;3.00;;;;;;;17.67;100.00;98352.94;5057414;28;20677;-79
2022/06/20 04:12:12;;;;;;;9.87;3.10;;;;;;;17.81;100.00;98366.72;5091645;28;20207;-80
2022/06/20 04:14:46;;;;;;;4.13;2.90;;;;;;;17.86;100.00;98361.72;5088732;28;20278;-79
2022/06/20 04:20:22;;;;;;;5.80;2.70;;;;;;;18.12;100.00;98373.13;5094174;28;20202;-79
2022/06/20 04:22:55;;;;;;;5.90;3.03;;;;;;;18.29;100.00;98379.38;5091184;28;20203;-80
2022/06/20 04:25:37;;;;;;;5.53;2.93;;;;;;;18.28;100.00;98375.00;5088648;28;20196;-79
2022/06/20 04:28:16;;;;;;;6.63;2.93;;;;;;;18.33;100.00;98379.88;5093682;28;20216;-80
2022/06/20 04:30:50;;;;;;;5.47;2.93;;;;;;;18.21;100.00;98392.75;5089463;28;20188;-79
2022/06/20 04:33:28;;;;;;;6.13;3.30;;;;;;;18.15;100.00;98385.41;5084802;28;20278;-79
2022/06/20 04:36:07;;;;;;;6.87;3.00;;;;;;;17.74;100.00;98398.66;5092369;28;20211;-79
2022/06/20 04:38:42;;;;;;;9.03;3.17;;;;;;;17.78;100.00;98439.38;5093423;28;20203;-79
2022/06/20 04:41:17;;;;;;;4.83;2.87;;;;;;;17.65;100.00;98482.63;5091842;28;20203;-79
2022/06/20 04:43:54;;;;;;;6.23;3.00;;;;;;;17.46;100.00;98508.63;5093331;28;20276;-79
2022/06/20 04:46:28;;;;;;;4.63;2.80;;;;;;;17.30;100.00;98547.84;5088403;28;20206;-79
2022/06/20 04:48:59;;;;;;;5.00;3.40;;;;;;;17.26;100.00;98563.38;5092432;28;20218;-79
2022/06/20 04:51:34;;;;;;;6.20;2.70;;;;;;;17.16;100.00;98584.88;5093696;28;20198;-79
2022/06/20 04:54:08;;;;;;;8.97;3.00;;;;;;;17.04;100.00;98582.59;5093829;28;20282;-79
2022/06/20 04:56:36;;;;;;;10.80;3.50;;;;;;;16.98;100.00;98583.19;5093947;28;20198;-79
2022/06/20 04:59:10;;;;;;;6.70;3.40;;;;;;;16.79;100.00;98573.47;5093087;28;20191;-79
2022/06/20 05:01:39;;;;;;;7.90;3.40;;;;;;;16.93;100.00;98588.19;5093648;28;20195;-79
2022/06/20 05:04:27;;;;;;;7.90;4.10;;;;;;;16.96;100.00;98571.81;5091245;28;20200;-79
2022/06/20 05:06:58;;;;;;;9.67;3.60;;;;;;;16.75;100.00;98586.31;5093574;28;20199;-79
2022/06/20 05:09:32;;;;;;;5.30;3.40;;;;;;;16.67;100.00;98516.66;5091673;28;20220;-79
2022/06/20 05:12:08;;;;;;;10.10;4.50;;;;;;;16.80;100.00;98511.81;5087875;28;20196;-80
2022/06/20 05:14:44;;;;;;;6.07;3.77;;;;;;;16.89;100.00;98512.75;5090185;28;20203;-80
2022/06/20 05:17:19;;;;;;;4.57;3.40;;;;;;;16.97;100.00;98503.91;5091270;28;20244;-81
2022/06/20 05:19:53;;;;;;;7.40;3.40;;;;;;;16.76;100.00;98509.59;5086398;28;20195;-80
2022/06/20 05:22:27;;;;;;;7.27;3.80;;;;;;;17.03;100.00;98514.03;5092026;28;20200;-80
2022/06/20 05:24:58;;;;;;;6.57;3.67;;;;;;;17.04;100.00;98535.25;5093074;28;20286;-80
2022/06/20 05:27:30;;;;;;;6.30;3.27;;;;;;;17.03;100.00;98576.41;5091966;28;20203;-80
2022/06/20 05:30:01;;;;;;;12.17;3.40;;;;;;;17.11;100.00;98589.00;5090389;28;20223;-81
2022/06/20 05:32:42;;;;;;;6.10;2.83;;;;;;;17.00;100.00;98606.16;5091896;28;20203;-80
2022/06/20 05:35:18;;;;;;;5.00;2.90;;;;;;;16.71;100.00;98621.56;5090248;28;20326;-80
2022/06/20 05:37:51;;;;;;;7.33;3.40;;;;;;;16.76;100.00;98589.84;5090466;28;20223;-80
2022/06/20 05:40:27;;;;;;;7.67;3.43;;;;;;;16.50;100.00;98585.19;5093455;28;20200;-80
2022/06/20 05:42:56;;;;;;;5.50;3.30;;;;;;;16.76;100.00;98605.88;5092911;28;20203;-80
2022/06/20 05:45:28;;;;;;;6.93;3.40;;;;;;;16.67;100.00;98593.38;5091843;28;20204;-80
2022/06/20 05:48:01;;;;;;;8.53;3.40;;;;;;;16.90;100.00;98593.84;5091889;28;20259;-80
2022/06/20 05:50:52;;;;;;;7.03;3.30;;;;;;;16.82;100.00;98616.00;5093170;28;20296;-80
2022/06/20 05:53:24;;;;;;;5.83;3.10;;;;;;;16.91;100.00;98646.34;5092976;28;20192;-81
2022/06/20 05:55:57;;;;;;;7.33;3.67;;;;;;;16.81;100.00;98657.94;5088849;28;20643;-81
2022/06/20 05:58:31;;;;;;;8.20;3.30;;;;;;;16.90;100.00;98666.91;5091771;28;20206;-81
2022/06/20 06:01:03;;;;;;;7.67;3.80;;;;;;;16.67;100.00;98670.94;5092769;28;20187;-80
2022/06/20 06:03:38;;;;;;;8.73;4.37;;;;;;;16.79;100.00;98691.16;5091398;28;20207;-80
2022/06/20 06:06:17;;;;;;;10.17;5.00;;;;;;;16.49;100.00;98684.25;5092660;28;20636;-80
2022/06/20 06:08:53;;;;;;;9.60;5.67;;;;;;;16.36;100.00;98659.69;5088317;28;20215;-80
2022/06/20 06:11:28;;;;;;;8.67;5.77;;;;;;;16.32;100.00;98688.53;5082169;28;20198;-80
2022/06/20 06:14:02;;;;;;;11.13;5.73;;;;;;;16.37;100.00;98690.75;5090416;28;20203;-80
2022/06/20 06:16:50;;;;;;;9.43;6.73;;;;;;;16.40;100.00;98698.47;5083052;28;20203;-80
2022/06/20 06:19:27;;;;;;;11.00;6.00;;;;;;;16.34;100.00;98689.22;5092724;28;20199;-80
2022/06/20 06:22:00;;;;;;;12.27;5.73;;;;;;;16.38;100.00;98697.78;5092854;28;20202;-80
2022/06/20 06:24:36;;;;;;;6.77;5.23;;;;;;;16.22;100.00;98664.53;5092954;28;20278;-80
2022/06/20 06:27:07;;;;;;;9.77;5.77;;;;;;;16.25;100.00;98663.38;5087626;28;20200;-80
2022/06/20 06:29:41;;;;;;;10.00;5.67;;;;;;;16.35;100.00;98664.19;5090422;28;20303;-80
2022/06/20 06:32:16;;;;;;;8.57;5.73;;;;;;;16.61;100.00;98653.66;5087437;28;20211;-80
2022/06/20 06:34:52;;;;;;;8.73;6.40;;;;;;;16.64;100.00;98680.09;5090490;28;20272;-80
2022/06/20 06:37:29;;;;;;;7.00;5.20;;;;;;;16.64;100.00;98653.34;5096704;28;20191;-80
2022/06/20 06:40:06;;;;;;;9.60;5.37;;;;;;;16.70;100.00;98678.72;5096748;28;20203;-80
2022/06/20 06:42:35;;;;;;;6.10;4.73;;;;;;;16.83;100.00;98674.69;5096397;28;20202;-80
2022/06/20 06:45:08;;;;;;;9.57;4.83;;;;;;;16.92;100.00;98686.31;5094053;28;20196;-81
2022/06/20 06:47:41;;;;;;;8.13;5.00;;;;;;;16.84;100.00;98691.56;5092171;28;20199;-80
2022/06/20 06:50:18;;;;;;;4.77;3.87;;;;;;;16.66;100.00;98698.66;5093889;28;20600;-80
2022/06/20 06:52:54;;;;;;;6.43;4.27;;;;;;;16.93;100.00;98701.38;5095917;28;20195;-80
2022/06/20 06:55:28;;;;;;;5.17;4.37;;;;;;;17.26;100.00;98689.19;5094508;28;20203;-80
2022/06/20 06:58:05;;;;;;;7.33;4.00;;;;;;;17.37;100.00;98690.78;5092504;28;20207;-81
2022/06/20 07:00:38;;;;;;;7.17;3.87;;;;;;;17.59;100.00;98678.78;5096510;27;20195;-81
2022/06/20 07:03:14;;;;;;;6.70;3.97;;;;;;;17.58;100.00;98669.91;5094390;28;20192;-81
2022/06/20 07:05:49;;;;;;;6.33;3.50;;;;;;;17.73;100.00;98651.47;5091198;28;20199;-81
2022/06/20 07:08:45;;;;;;;4.90;3.40;;;;;;;17.66;100.00;98627.13;5095533;28;20269;-80
2022/06/20 07:11:21;;;;;;;4.50;3.47;;;;;;;17.62;100.00;98600.81;5095130;28;20187;-81
2022/06/20 07:13:59;;;;;;;5.23;3.50;;;;;;;17.75;100.00;98609.28;5086840;28;20219;-81
2022/06/20 07:16:31;;;;;;;4.43;3.40;;;;;;;17.62;100.00;98620.38;5095439;28;20196;-80
2022/06/20 07:19:02;;;;;;;7.50;3.80;;;;;;;17.41;100.00;98631.44;5094405;28;20200;-81
2022/06/20 07:21:33;;;;;;;4.90;3.63;;;;;;;17.72;100.00;98631.03;5093981;28;20199;-80
2022/06/20 07:24:06;;;;;;;6.00;3.70;;;;;;;17.89;100.00;98632.84;5095504;28;20206;-80
2022/06/20 07:26:40;;;;;;;8.83;3.60;;;;;;;17.91;100.00;98635.34;5095166;28;20195;-80
2022/06/20 07:29:15;;;;;;;4.97;3.70;;;;;;;17.99;100.00;98636.25;5094033;28;20199;-80
2022/06/20 07:31:47;;;;;;;5.63;3.40;;;;;;;17.86;100.00;98641.19;5090122;28;20221;-81
2022/06/20 07:34:19;;;;;;;5.77;3.83;;;;;;;17.71;100.00;98645.44;5091197;28;20315;-80
2022/06/20 07:36:51;;;;;;;5.73;3.60;;;;;;;17.96;100.00;98646.47;5094835;28;20235;-81
2022/06/20 07:39:24;;;;;;;4.50;3.70;;;;;;;17.94;100.00;98640.38;5097610;27;20195;-80
2022/06/20 07:41:58;;;;;;;6.27;4.10;;;;;;;17.90;100.00;98639.88;5092895;28;20275;-81
2022/06/20 07:44:32;;;;;;;5.43;4.00;;;;;;;18.04;100.00;98635.75;5092031;28;20703;-81
2022/06/20 07:47:06;;;;;;;5.90;4.00;;;;;;;17.71;100.00;98635.56;5093375;28;20713;-80
2022/06/20 07:49:37;;;;;;;6.20;3.80;;;;;;;18.07;100.00;98638.16;5094789;28;20229;-81
2022/06/20 07:52:11;;;;;;;4.80;3.63;;;;;;;18.06;100.00;98631.09;5094296;28;20196;-81
2022/06/20 07:54:45;;;;;;;6.53;3.70;;;;;;;18.00;100.00;98642.44;5090393;28;20199;-81
2022/06/20 07:57:18;;;;;;;7.03;4.00;;;;;;;18.02;100.00;98657.38;5059263;28;20197;-81
2022/06/20 07:59:52;;;;;;;5.20;3.53;;;;;;;17.97;100.00;98674.94;5091447;28;20237;-81
2022/06/20 08:02:27;;;;;;;4.60;3.43;;;;;;;17.71;100.00;98683.78;5093305;28;20211;-81
2022/06/20 08:04:59;;;;;;;5.97;3.57;;;;;;;17.66;100.00;98690.53;5092900;28;20600;-80
2022/06/20 08:07:34;;;;;;;4.37;3.60;;;;;;;17.64;100.00;98690.69;5091591;28;20207;-81
2022/06/20 08:10:12;;;;;;;5.33;3.90;;;;;;;17.72;100.00;98684.63;5094523;28;20247;-80
2022/06/20 08:13:03;;;;;;;5.67;4.10;;;;;;;17.68;100.00;98701.97;5094321;28;20283;-81
2022/06/20 08:15:34;;;;;;;9.10;4.60;;;;;;;17.51;100.00;98705.50;5092323;28;20198;-81
2022/06/20 08:18:05;;;;;;;4.67;4.20;;;;;;;17.46;100.00;98713.97;5088173;28;20219;-81
2022/06/20 08:20:41;;;;;;;4.43;4.03;;;;;;;17.37;100.00;98721.09;5092851;28;20214;-81
2022/06/20 08:23:14;;;;;;;6.47;4.40;;;;;;;17.31;100.00;98727.06;5092112;28;20195;-81
2022/06/20 08:25:52;;;;;;;6.17;4.43;;;;;;;17.18;100.00;98718.56;5094238;28;20199;-81
2022/06/20 08:28:34;;;;;;;5.23;4.07;;;;;;;17.23;100.00;98731.47;5096411;28;20219;-82
2022/06/20 08:31:11;;;;;;;7.30;4.30;;;;;;;17.38;100.00;98748.72;5094530;27;20211;-81
2022/06/20 08:33:48;;;;;;;6.10;3.83;;;;;;;17.25;100.00;98737.50;5089202;28;20205;-81
2022/06/20 08:36:22;;;;;;;7.50;4.30;;;;;;;17.50;100.00;98741.31;5092299;28;20206;-81
2022/06/20 08:38:59;;;;;;;6.37;4.20;;;;;;;17.67;100.00;98745.81;5094350;28;20673;-80
2022/06/20 08:41:54;;;;;;;4.50;4.10;;;;;;;17.70;100.00;98751.75;5091368;28;20195;-81
2022/06/20 08:45:04;;;;;;;6.03;3.90;;;;;;;17.84;100.00;98757.53;5089044;28;20195;-80
2022/06/20 08:48:02;;;;;;;4.17;3.53;;;;;;;17.71;100.00;98761.47;5092955;28;20210;-81
2022/06/20 08:51:03;;;;;;;5.63;3.60;;;;;;;17.44;100.00;98762.31;5091710;28;20219;-81
2022/06/20 08:54:06;;;;;;;4.77;3.13;;;;;;;17.45;100.00;98755.97;5065965;28;20199;-80
2022/06/20 08:56:46;;;;;;;4.80;3.53;;;;;;;17.17;100.00;98759.66;5092440;28;20195;-81
2022/06/20 08:59:31;;;;;;;5.27;3.07;;;;;;;17.04;100.00;98770.75;5094040;28;20207;-80
2022/06/20 09:02:11;;;;;;;4.57;3.40;;;;;;;16.83;100.00;98776.34;5092672;28;20203;-81
2022/06/20 09:05:08;;;;;;;3.80;3.40;;;;;;;16.94;100.00;98777.97;5093468;28;20246;-81
2022/06/20 09:08:04;;;;;;;4.63;3.13;;;;;;;16.85;100.00;98790.41;5093222;28;20210;-81
2022/06/20 09:10:49;;;;;;;4.07;2.87;;;;;;;16.83;100.00;98795.06;5088447;28;20219;-80
2022/06/20 09:13:38;;;;;;;3.17;2.60;;;;;;;16.65;100.00;98815.50;5091987;28;20371;-81
2022/06/20 09:16:20;;;;;;;4.60;2.97;;;;;;;16.67;100.00;98826.03;5092071;28;20670;-81
2022/06/20 09:19:07;;;;;;;3.87;2.60;;;;;;;16.63;100.00;98840.69;5089094;28;20219;-81
2022/06/20 09:21:45;;;;;;;3.10;2.03;;;;;;;16.50;100.00;98841.84;5093095;28;20206;-81
2022/06/20 09:24:26;;;;;;;1.90;1.80;;;;;;;16.00;100.00;98846.50;5092825;28;20199;-80
2022/06/20 09:27:08;;;;;;;2.13;1.47;;;;;;;16.07;100.00;98860.16;5088004;28;20188;-81
2022/06/20 09:30:06;;;;;;;1.50;1.40;;;;;;;15.85;100.00;98864.78;5091083;28;20203;-80
2022/06/20 09:33:32;;;;;;;3.50;1.47;;;;;;;16.12;100.00;98885.50;5081540;28;20195;-81
2022/06/20 09:36:27;;;;;;;3.03;1.00;;;;;;;15.73;100.00;98887.28;5090846;28;20191;-81
2022/06/20 09:39:18;;;;;;;1.20;0.90;;;;;;;15.52;100.00;98887.31;5090366;28;20195;-80
2022/06/20 09:41:58;;;;;;;2.23;0.93;;;;;;;15.50;100.00;98894.59;5093159;28;20199;-81
2022/06/20 09:44:38;;;;;;;2.00;0.97;;;;;;;15.53;100.00;98897.00;5086230;28;20187;-81
2022/06/20 09:47:26;;;;;;;1.97;1.00;;;;;;;15.42;100.00;98907.78;5089708;28;20278;-81
2022/06/20 09:50:21;;;;;;;0.77;0.70;;;;;;;15.60;100.00;98900.84;5087182;28;20200;-81
2022/06/20 09:53:00;;;;;;;1.87;1.00;;;;;;;15.65;100.00;98887.09;5088350;28;20191;-81
2022/06/20 09:55:38;;;;;;;1.10;1.00;;;;;;;15.86;100.00;98898.53;5092627;28;20196;-81
2022/06/20 09:58:14;;;;;;;3.37;0.90;;;;;;;15.91;100.00;98909.63;5092386;28;20204;-80
2022/06/20 10:00:50;;;;;;;3.70;1.00;;;;;;;15.79;100.00;98902.72;5092630;28;20255;-81
2022/06/20 10:03:35;;;;;;;0.80;0.73;;;;;;;15.97;100.00;98916.25;5091848;28;20192;-81
2022/06/20 10:06:11;;;;;;;1.73;0.83;;;;;;;16.06;100.00;98923.44;5085417;28;20271;-81
2022/06/20 10:09:01;;;;;;;3.63;1.00;;;;;;;15.88;100.00;98903.72;5093847;28;20322;-81
2022/06/20 10:11:39;;;;;;;1.60;1.07;;;;;;;16.00;100.00;98915.97;5096779;28;20222;-80
2022/06/20 10:14:14;;;;;;;1.37;1.10;;;;;;;15.96;100.00;98917.25;5096805;28;20188;-81
2022/06/20 10:16:49;;;;;;;2.47;1.00;;;;;;;16.01;100.00;98917.66;5095824;28;20638;-81
2022/06/20 10:19:26;;;;;;;1.63;1.10;;;;;;;16.18;100.00;98919.66;5090387;28;20244;-81
2022/06/20 10:22:06;;;;;;;1.93;1.10;;;;;;;16.08;100.00;98925.97;5091776;28;20211;-80
2022/06/20 10:25:00;;;;;;;1.37;1.10;;;;;;;16.20;100.00;98932.88;5093524;28;20215;-81
2022/06/20 10:27:56;;;;;;;2.43;1.03;;;;;;;16.17;100.00;98936.66;5096677;28;20203;-81
2022/06/20 10:30:38;;;;;;;1.43;1.07;;;;;;;16.30;100.00;98933.72;5094005;28;20207;-80
2022/06/20 10:33:29;;;;;;;3.17;1.00;;;;;;;16.13;100.00;98937.94;5093611;28;20199;-81
2022/06/20 10:36:25;;;;;;;2.30;0.80;;;;;;;15.84;100.00;98940.56;5095939;28;20375;-80
2022/06/20 10:39:11;;;;;;;0.93;0.77;;;;;;;15.37;100.00;98963.41;5096286;28;20219;-80
2022/06/20 10:41:57;;;;;;;1.77;0.93;;;;;;;15.44;100.00;98945.84;5093030;28;20212;-80
2022/06/20 10:44:36;;;;;;;2.00;0.90;;;;;;;15.58;100.00;98950.84;5090502;28;20221;-80
2022/06/20 10:47:19;;;;;;;2.53;0.80;;;;;;;15.55;100.00;98951.13;5094938;28;20199;-80
2022/06/20 10:50:16;;;;;;;3.00;0.90;;;;;;;15.16;100.00;98953.59;5096144;28;20206;-80
2022/06/20 10:53:03;;;;;;;2.10;1.00;;;;;;;15.31;100.00;98950.56;5095304;28;20675;-80
2022/06/20 10:55:44;;;;;;;0.83;0.77;;;;;;;15.14;100.00;98952.03;5089094;28;20280;-80
2022/06/20 10:58:30;;;;;;;0.80;0.70;;;;;;;15.02;100.00;98953.09;5091403;28;20234;-80
2022/06/20 11:01:12;;;;;;;2.70;0.80;;;;;;;15.20;100.00;98948.00;5094803;28;20210;-80
2022/06/20 11:03:59;;;;;;;1.07;0.80;;;;;;;15.29;100.00;98958.72;5089162;28;20198;-80
2022/06/20 11:06:44;;;;;;;1.40;0.80;;;;;;;15.36;100.00;98981.25;5095613;28;20195;-80
2022/06/20 11:09:23;;;;;;;2.30;1.03;;;;;;;15.20;100.00;98983.53;5089588;28;20198;-80
2022/06/20 11:12:01;;;;;;;2.30;1.20;;;;;;;15.32;100.00;98981.63;5095639;28;20301;-80
2022/06/20 11:14:39;;;;;;;1.27;0.90;;;;;;;15.12;100.00;98986.84;5095134;28;20199;-80
2022/06/20 11:17:17;;;;;;;1.77;1.03;;;;;;;15.38;100.00;98983.78;5057621;28;20202;-81
2022/06/20 11:19:55;;;;;;;1.63;1.20;;;;;;;15.38;100.00;98984.63;5095668;28;20216;-80
2022/06/20 11:22:37;;;;;;;2.17;1.23;;;;;;;15.60;100.00;98990.75;5084810;28;20622;-80
2022/06/20 11:25:30;;;;;;;2.13;1.20;;;;;;;15.71;100.00;98996.03;5095154;28;20192;-80
2022/06/20 11:28:39;;;;;;;3.57;1.20;;;;;;;15.62;100.00;99010.19;5095135;28;20196;-81
2022/06/20 11:31:11;;;;;;;4.80;1.23;;;;;;;15.53;100.00;99024.28;5089083;28;20282;-81
2022/06/20 11:34:04;;;;;;;2.60;1.17;;;;;;;15.69;100.00;99030.03;5087522;28;20210;-80
2022/06/20 11:36:46;;;;;;;2.03;1.10;;;;;;;15.74;100.00;99036.69;5095138;28;20207;-80
2022/06/20 11:39:30;;;;;;;2.40;1.23;;;;;;;15.77;100.00;99027.53;5095412;28;20252;-81
2022/06/20 11:42:13;;;;;;;2.87;1.73;;;;;;;15.67;100.00;99021.31;5092428;28;20200;-80
2022/06/20 11:44:58;;;;;;;2.43;1.80;;;;;;;15.65;100.00;99010.78;5095292;28;20209;-80
2022/06/20 11:47:52;;;;;;;2.40;1.90;;;;;;;15.47;100.00;99009.66;5094448;28;20210;-80
2022/06/20 11:50:34;;;;;;;2.87;1.83;;;;;;;15.53;100.00;99010.94;5095218;28;20229;-80
2022/06/20 11:53:15;;;;;;;4.70;1.97;;;;;;;15.54;100.00;99007.28;5086036;28;20230;-80
2022/06/20 11:55:49;;;;;;;3.67;2.00;;;;;;;15.92;100.00;98996.81;5091375;28;20204;-81
2022/06/20 11:58:27;;;;;;;3.10;1.70;;;;;;;15.95;100.00;99006.38;5093551;28;20681;-81
2022/06/20 12:01:00;;;;;;;2.60;1.90;;;;;;;15.42;100.00;98995.84;5092115;28;20195;-81
2022/06/20 12:03:39;;;;;;;3.27;1.80;;;;;;;15.72;100.00;98990.53;5092305;28;20203;-80
2022/06/20 12:06:11;;;;;;;4.30;2.00;;;;;;;15.88;100.00;98989.19;5094554;28;20207;-81
2022/06/20 12:08:51;;;;;;;2.17;1.50;;;;;;;15.93;100.00;99006.53;5095072;28;20199;-81
2022/06/20 12:11:46;;;;;;;4.70;1.73;;;;;;;16.03;100.00;98995.88;5097801;28;20195;-81
2022/06/20 12:14:32;;;;;;;4.33;1.50;;;;;;;16.17;100.00;98987.44;5098907;28;20219;-81
2022/06/20 12:17:13;;;;;;;3.67;1.30;;;;;;;15.80;100.00;98997.88;5097680;28;20203;-80
2022/06/20 12:25:44;;;;;;;1.20;1.10;;;;;;;15.62;100.00;98996.81;5055164;28;20264;-80
2022/06/20 12:28:18;;;;;;;2.60;1.13;;;;;;;15.69;100.00;98992.66;5043153;28;20208;-82